Terminal Aerodrome Forecast
Issued by NWS Wilmington, OH

Current Version | Previous Version | Text Only | Print | Product List | Glossary Off
Versions: 1 2 3 4 5 6 7 8 9 10 11 12 13 14 15 16 17

000
FTUS41 KILN 082300
TAFCMH
TAF
KCMH 082330Z 0900/0924 26012KT P6SM SCT050
     FM090200 26007KT P6SM SCT050
     FM091500 27010KT P6SM BKN040
     FM092200 31010KT P6SM BKN050=

USA.gov is the U.S. government's official web portal to all federal, state and local government web resources and services.